createdAt,value
2018-03-08T00:00:20.218Z,72.87
2018-03-08T00:02:49.511Z,62.53
2018-03-08T00:05:18.758Z,50.57
2018-03-08T00:07:48.245Z,58.67
2018-03-08T00:10:17.566Z,61.07
2018-03-08T00:12:46.918Z,51.20
2018-03-08T00:15:16.357Z,54.10
2018-03-08T00:17:45.857Z,59.57
2018-03-08T00:20:15.271Z,61.35
2018-03-08T00:22:44.391Z,61.53
2018-03-08T00:25:13.825Z,58.80
2018-03-08T00:27:43.329Z,58.15
2018-03-08T00:30:12.732Z,54.55
2018-03-08T00:32:42.195Z,50.30
2018-03-08T00:35:11.981Z,55.40
2018-03-08T00:37:41.574Z,57.30
2018-03-08T00:40:10.549Z,57.42
2018-03-08T00:42:40.062Z,50.28
2018-03-08T00:45:09.338Z,49.77
2018-03-08T00:47:38.657Z,44.27
2018-03-08T00:50:07.857Z,45.38
2018-03-08T00:52:37.083Z,44.08
2018-03-08T00:55:06.077Z,43.80
2018-03-08T00:57:35.453Z,42.33
2018-03-08T01:00:04.863Z,44.30
2018-03-08T01:02:34.512Z,46.80
2018-03-08T01:05:03.808Z,41.17
2018-03-08T01:07:33.022Z,36.03
2018-03-08T01:10:02.424Z,42.90
2018-03-08T01:12:31.869Z,44.03
2018-03-08T01:15:01.373Z,40.03
2018-03-08T01:17:30.854Z,38.53
2018-03-08T01:20:00.201Z,40.70
2018-03-08T01:22:29.843Z,39.75
2018-03-08T01:24:58.884Z,36.28
2018-03-08T01:27:28.156Z,34.58
2018-03-08T01:29:57.629Z,29.92
2018-03-08T01:32:26.809Z,32.80
2018-03-08T01:34:55.928Z,26.70
2018-03-08T01:37:25.095Z,29.48
2018-03-08T01:39:54.317Z,26.62
2018-03-08T01:42:23.625Z,27.73
2018-03-08T01:44:52.881Z,28.80
2018-03-08T01:47:22.284Z,31.37
2018-03-08T01:49:51.565Z,32.37
2018-03-08T01:52:21.114Z,30.67
2018-03-08T01:54:50.237Z,35.53
2018-03-08T01:57:19.755Z,31.85
2018-03-08T01:59:49.163Z,32.53
2018-03-08T02:02:18.508Z,38.90
2018-03-08T02:04:47.697Z,35.63
2018-03-08T02:07:17.036Z,34.53
2018-03-08T02:09:46.060Z,36.20
2018-03-08T02:12:16.567Z,37.55
2018-03-08T02:14:46.144Z,37.03
2018-03-08T02:17:15.429Z,36.58
2018-03-08T02:19:44.937Z,37.30
2018-03-08T02:22:13.961Z,42.15
2018-03-08T02:24:43.342Z,37.58
2018-03-08T02:27:12.529Z,43.20
2018-03-08T02:29:41.987Z,45.00
2018-03-08T02:32:11.304Z,45.55
2018-03-08T02:34:40.667Z,45.22
2018-03-08T02:37:10.044Z,36.90
2018-03-08T02:39:39.594Z,38.00
2018-03-08T02:42:08.658Z,36.30
2018-03-08T02:44:38.027Z,37.00
2018-03-08T02:47:07.349Z,35.17
2018-03-08T02:49:36.604Z,44.70
2018-03-08T02:52:05.898Z,40.55
2018-03-08T02:54:35.560Z,40.80
2018-03-08T02:57:04.962Z,39.30
2018-03-08T02:59:34.158Z,41.00
2018-03-08T03:02:03.581Z,39.75
2018-03-08T03:04:33.065Z,44.35
2018-03-08T03:07:02.630Z,52.92
2018-03-08T03:09:31.705Z,47.35
2018-03-08T03:12:00.984Z,43.47
2018-03-08T03:14:30.209Z,40.63
2018-03-08T03:17:00.054Z,47.05
2018-03-08T03:19:29.396Z,47.92
2018-03-08T03:21:58.741Z,47.05
2018-03-08T03:24:28.015Z,47.33
2018-03-08T03:26:57.285Z,41.45
2018-03-08T03:29:26.585Z,37.00
2018-03-08T03:31:55.879Z,36.72
2018-03-08T03:34:25.295Z,37.85
2018-03-08T03:36:54.665Z,34.63
2018-03-08T03:39:24.347Z,33.40
2018-03-08T03:41:53.722Z,36.67
2018-03-08T03:44:22.865Z,41.28
2018-03-08T03:46:51.933Z,37.53
2018-03-08T03:49:21.223Z,41.42
2018-03-08T03:51:50.534Z,35.90
2018-03-08T03:54:19.783Z,40.10
2018-03-08T03:56:49.025Z,38.88
2018-03-08T03:59:18.005Z,38.10
2018-03-08T04:01:47.278Z,37.75
2018-03-08T04:04:16.550Z,36.72
2018-03-08T04:06:45.788Z,45.88
2018-03-08T04:09:14.989Z,34.97
2018-03-08T04:11:44.506Z,36.13
2018-03-08T04:14:13.963Z,32.05
2018-03-08T04:16:43.077Z,38.38
2018-03-08T04:19:12.605Z,37.70
2018-03-08T04:21:41.981Z,39.10
2018-03-08T04:24:11.369Z,36.05
2018-03-08T04:26:40.729Z,40.83
2018-03-08T04:29:10.012Z,38.15
2018-03-08T04:31:39.630Z,40.30
2018-03-08T04:34:09.225Z,37.70
2018-03-08T04:36:38.525Z,44.15
2018-03-08T04:39:07.976Z,43.30
2018-03-08T04:41:37.537Z,40.80
2018-03-08T04:44:07.000Z,40.03
2018-03-08T04:46:36.117Z,54.33
2018-03-08T04:49:05.665Z,44.30
2018-03-08T04:51:35.089Z,60.28
2018-03-08T04:54:04.458Z,43.03
2018-03-08T04:56:33.907Z,47.15
2018-03-08T04:59:02.869Z,40.05
2018-03-08T05:01:31.821Z,41.42
2018-03-08T05:04:01.101Z,41.13
2018-03-08T05:06:30.502Z,40.05
2018-03-08T05:08:59.937Z,55.17
2018-03-08T05:11:29.054Z,46.63
2018-03-08T05:13:58.244Z,42.17
2018-03-08T05:16:27.841Z,42.45
2018-03-08T05:18:57.257Z,47.75
2018-03-08T05:21:26.673Z,41.28
2018-03-08T05:23:56.165Z,36.97
2018-03-08T05:26:25.401Z,37.70
2018-03-08T05:28:54.724Z,43.40
2018-03-08T05:31:24.383Z,39.63
2018-03-08T05:33:53.468Z,53.17
2018-03-08T05:36:22.729Z,46.47
2018-03-08T05:38:52.233Z,41.60
2018-03-08T05:41:21.418Z,46.57
2018-03-08T05:43:50.528Z,53.33
2018-03-08T05:46:19.931Z,43.57
2018-03-08T05:48:49.066Z,33.27
2018-03-08T05:51:18.086Z,38.70
2018-03-08T05:53:47.105Z,37.67
2018-03-08T05:56:16.253Z,31.37
2018-03-08T05:58:45.401Z,32.53
2018-03-08T06:01:21.176Z,33.27
2018-03-08T06:03:50.410Z,29.50
2018-03-08T06:06:19.995Z,29.37
2018-03-08T06:08:49.549Z,37.00
2018-03-08T06:11:19.021Z,39.92
2018-03-08T06:13:48.077Z,38.42
2018-03-08T06:16:17.362Z,38.03
2018-03-08T06:18:46.427Z,46.77
2018-03-08T06:21:15.614Z,25.47
2018-03-08T06:23:44.929Z,29.92
2018-03-08T06:26:14.284Z,28.83
2018-03-08T06:28:43.990Z,30.70
2018-03-08T06:31:13.605Z,24.80
2018-03-08T06:33:43.051Z,28.65
2018-03-08T06:36:12.576Z,31.67
2018-03-08T06:38:41.909Z,26.17
2018-03-08T06:41:11.045Z,28.00
2018-03-08T06:43:40.575Z,27.13
2018-03-08T06:46:10.232Z,29.50
2018-03-08T06:48:39.515Z,26.27
2018-03-08T06:51:08.655Z,20.00
2018-03-08T06:53:37.653Z,26.93
2018-03-08T06:56:07.068Z,26.33
2018-03-08T06:58:36.204Z,23.57
2018-03-08T07:01:05.473Z,19.70
2018-03-08T07:03:34.661Z,21.07
2018-03-08T07:06:03.776Z,23.63
2018-03-08T07:08:33.078Z,19.90
2018-03-08T07:11:02.152Z,32.03
2018-03-08T07:13:31.499Z,36.97
2018-03-08T07:16:00.945Z,25.90
2018-03-08T07:18:30.459Z,29.87
2018-03-08T07:20:59.909Z,33.90
2018-03-08T07:23:29.133Z,33.27
2018-03-08T07:25:58.356Z,44.03
2018-03-08T07:28:27.762Z,31.30
2018-03-08T07:30:58.100Z,26.93
2018-03-08T07:33:27.495Z,27.17
2018-03-08T07:35:56.890Z,24.93
2018-03-08T07:38:26.025Z,31.03
2018-03-08T07:40:55.647Z,27.50
2018-03-08T07:43:24.893Z,28.77
2018-03-08T07:45:54.047Z,29.27
2018-03-08T07:48:23.302Z,28.67
2018-03-08T07:50:52.636Z,38.43
2018-03-08T07:53:21.889Z,36.17
2018-03-08T07:55:51.338Z,38.60
2018-03-08T07:58:20.627Z,27.30
2018-03-08T08:00:50.010Z,31.00
2018-03-08T08:03:19.407Z,19.97
2018-03-08T08:05:59.982Z,29.23
2018-03-08T08:08:37.112Z,31.60
2018-03-08T08:11:06.366Z,19.37
2018-03-08T08:13:35.894Z,15.77
2018-03-08T08:16:05.275Z,17.00
2018-03-08T08:18:34.929Z,27.80
2018-03-08T08:21:04.249Z,41.23
2018-03-08T08:23:33.838Z,21.43
2018-03-08T08:26:03.117Z,18.77
2018-03-08T08:28:32.734Z,22.40
2018-03-08T08:31:02.039Z,13.93
2018-03-08T08:33:31.602Z,21.00
2018-03-08T08:36:01.164Z,14.53
2018-03-08T08:38:30.438Z,14.03
2018-03-08T08:40:59.697Z,14.60
2018-03-08T08:43:29.109Z,15.37
2018-03-08T08:45:58.409Z,15.27
2018-03-08T08:48:27.914Z,8.27
2018-03-08T08:50:57.268Z,11.67
2018-03-08T08:53:26.685Z,12.07
2018-03-08T08:55:55.931Z,9.00
2018-03-08T08:58:25.539Z,11.93
2018-03-08T09:00:54.501Z,11.97
2018-03-08T09:03:23.832Z,12.40
2018-03-08T09:05:53.121Z,10.23
2018-03-08T09:08:22.427Z,8.67
2018-03-08T09:10:51.842Z,9.70
2018-03-08T09:13:20.987Z,7.10
2018-03-08T09:15:50.069Z,6.67
2018-03-08T09:18:19.069Z,10.13
2018-03-08T09:20:48.590Z,10.67
2018-03-08T09:23:17.780Z,9.27
2018-03-08T09:25:47.151Z,6.33
2018-03-08T09:28:16.542Z,7.07
2018-03-08T09:30:46.030Z,9.30
2018-03-08T09:33:15.499Z,8.10
2018-03-08T09:35:44.633Z,5.30
2018-03-08T09:38:13.893Z,8.83
2018-03-08T09:40:43.796Z,9.60
2018-03-08T09:43:13.208Z,8.77
2018-03-08T09:45:42.563Z,7.03
2018-03-08T09:48:11.763Z,7.47
2018-03-08T09:50:41.629Z,7.40
2018-03-08T09:53:11.637Z,9.77
2018-03-08T09:55:41.571Z,7.73
2018-03-08T09:58:11.415Z,11.07
2018-03-08T10:00:40.931Z,14.53
2018-03-08T10:03:10.435Z,10.87
2018-03-08T10:05:39.718Z,14.13
2018-03-08T10:08:09.642Z,7.70
2018-03-08T10:10:38.851Z,9.23
2018-03-08T10:13:08.410Z,11.00
2018-03-08T10:15:37.857Z,9.70
2018-03-08T10:18:07.469Z,15.53
2018-03-08T10:20:36.718Z,6.70
2018-03-08T10:23:06.299Z,10.53
2018-03-08T10:25:35.464Z,9.43
2018-03-08T10:28:05.693Z,10.50
2018-03-08T10:30:35.342Z,7.80
2018-03-08T10:33:04.716Z,11.17
2018-03-08T10:35:34.364Z,8.50
2018-03-08T10:38:03.753Z,8.23
2018-03-08T10:43:02.300Z,9.63
2018-03-08T10:45:31.561Z,10.87
2018-03-08T10:48:00.713Z,10.93
2018-03-08T10:50:30.074Z,8.63
2018-03-08T10:52:59.453Z,15.63
2018-03-08T10:55:28.557Z,8.13
2018-03-08T10:57:57.822Z,7.10
2018-03-08T11:00:32.892Z,7.20
2018-03-08T11:03:06.980Z,10.53
2018-03-08T11:05:41.048Z,11.57
2018-03-08T11:08:10.685Z,12.63
2018-03-08T11:10:39.943Z,9.60
2018-03-08T11:13:09.425Z,12.23
2018-03-08T11:15:38.961Z,11.07
2018-03-08T11:18:08.101Z,8.47
2018-03-08T11:20:37.301Z,12.83
2018-03-08T11:23:06.543Z,8.37
2018-03-08T11:25:35.688Z,7.43
2018-03-08T11:28:05.107Z,10.30
2018-03-08T11:30:34.537Z,11.70
2018-03-08T11:33:04.311Z,11.47
2018-03-08T11:35:33.610Z,14.37
2018-03-08T11:38:02.879Z,11.30
2018-03-08T11:40:32.137Z,19.97
2018-03-08T11:43:01.515Z,14.13
2018-03-08T11:45:30.859Z,14.43
2018-03-08T11:48:00.018Z,10.03
2018-03-08T11:50:29.631Z,7.37
2018-03-08T11:52:59.025Z,11.63
2018-03-08T11:55:28.565Z,7.87
2018-03-08T11:57:57.685Z,14.90
2018-03-08T12:00:26.838Z,16.63
2018-03-08T12:02:56.078Z,13.30
2018-03-08T12:05:25.742Z,6.97
2018-03-08T12:07:54.739Z,10.43
2018-03-08T12:10:24.097Z,8.47
2018-03-08T12:12:53.472Z,8.60
2018-03-08T12:15:22.802Z,6.47
2018-03-08T12:17:52.644Z,9.53
2018-03-08T12:20:21.846Z,16.13
2018-03-08T12:22:51.189Z,14.97
2018-03-08T12:25:20.282Z,9.77
2018-03-08T12:27:49.679Z,6.17
2018-03-08T12:30:18.847Z,10.67
2018-03-08T12:32:48.332Z,10.43
2018-03-08T12:35:17.753Z,8.50
2018-03-08T12:37:47.226Z,9.17
2018-03-08T12:40:16.779Z,10.90
2018-03-08T12:42:45.965Z,10.53
2018-03-08T12:45:15.313Z,10.07
2018-03-08T12:47:44.925Z,8.83
2018-03-08T12:50:14.481Z,7.93
2018-03-08T12:52:44.013Z,8.50
2018-03-08T12:55:13.454Z,7.90
2018-03-08T12:57:42.606Z,7.40
2018-03-08T13:00:11.911Z,8.87
2018-03-08T13:02:41.303Z,9.27
2018-03-08T13:05:10.622Z,9.30
2018-03-08T13:07:39.809Z,7.47
2018-03-08T13:10:09.239Z,10.90
2018-03-08T13:12:38.502Z,11.03
2018-03-08T13:15:07.614Z,13.07
2018-03-08T13:17:36.950Z,14.90
2018-03-08T13:20:06.470Z,17.70
2018-03-08T13:22:35.854Z,19.93
2018-03-08T13:25:05.239Z,21.80
2018-03-08T13:27:34.732Z,16.73
2018-03-08T13:30:04.026Z,19.97
2018-03-08T13:32:33.242Z,22.77
2018-03-08T13:35:02.583Z,24.53
2018-03-08T13:37:31.917Z,19.37
2018-03-08T13:40:01.486Z,22.53
2018-03-08T13:42:31.359Z,23.10
2018-03-08T13:45:00.660Z,17.07
2018-03-08T13:47:30.053Z,17.40
2018-03-08T13:49:59.196Z,22.90
2018-03-08T13:52:28.669Z,17.33
2018-03-08T13:54:57.911Z,17.13
2018-03-08T13:57:27.149Z,19.67
2018-03-08T13:59:56.342Z,20.93
2018-03-08T14:02:26.257Z,23.57
2018-03-08T14:04:55.478Z,23.70
2018-03-08T14:07:24.762Z,22.93
2018-03-08T14:09:53.913Z,22.10
2018-03-08T14:12:23.419Z,20.37
2018-03-08T14:14:52.814Z,25.03
2018-03-08T14:17:22.374Z,23.37
2018-03-08T14:19:51.613Z,23.57
2018-03-08T14:22:20.868Z,22.50
2018-03-08T14:24:50.080Z,21.47
2018-03-08T14:27:19.530Z,21.43
2018-03-08T14:29:48.617Z,24.37
2018-03-08T14:32:18.135Z,24.87
2018-03-08T14:34:47.277Z,24.70
2018-03-08T14:37:16.353Z,27.67
2018-03-08T14:39:45.362Z,25.23
2018-03-08T14:42:15.044Z,24.60
2018-03-08T14:44:44.375Z,24.03
2018-03-08T14:47:13.572Z,18.97
2018-03-08T14:49:42.685Z,30.83
2018-03-08T14:52:11.886Z,24.17
2018-03-08T14:54:41.382Z,21.60
2018-03-08T14:57:11.681Z,32.97
2018-03-08T14:59:41.442Z,31.83
2018-03-08T15:02:11.074Z,31.87
2018-03-08T15:04:40.417Z,39.00
2018-03-08T15:07:09.708Z,29.60
2018-03-08T15:09:39.057Z,29.10
2018-03-08T15:12:08.649Z,35.37
2018-03-08T15:14:37.834Z,27.13
2018-03-08T15:17:07.487Z,37.87
2018-03-08T15:19:36.692Z,29.70
2018-03-08T15:22:06.198Z,30.23
2018-03-08T15:24:35.435Z,36.30
2018-03-08T15:27:04.799Z,36.43
2018-03-08T15:29:33.794Z,33.93
2018-03-08T15:32:03.077Z,32.30
2018-03-08T15:34:32.343Z,34.63
2018-03-08T15:37:01.637Z,38.80
2018-03-08T15:39:30.833Z,34.70
2018-03-08T15:42:00.351Z,38.57
2018-03-08T15:44:30.013Z,37.03
2018-03-08T15:46:59.259Z,53.17
2018-03-08T15:49:28.653Z,38.37
2018-03-08T15:51:57.913Z,36.70
2018-03-08T15:54:26.982Z,38.10
2018-03-08T15:56:56.203Z,51.10
2018-03-08T15:59:25.486Z,42.30
2018-03-08T16:01:54.566Z,46.00
2018-03-08T16:04:24.106Z,36.00
2018-03-08T16:10:29.467Z,43.73
2018-03-08T16:12:58.564Z,40.90
2018-03-08T16:15:27.605Z,43.60
2018-03-08T16:17:57.124Z,55.60
2018-03-08T16:20:26.309Z,56.27
2018-03-08T16:22:55.472Z,58.47
2018-03-08T16:25:24.776Z,55.50
2018-03-08T16:27:54.070Z,55.27
2018-03-08T16:30:23.245Z,53.57
2018-03-08T16:32:52.401Z,46.57
2018-03-08T16:35:21.661Z,50.80
2018-03-08T16:37:50.901Z,54.50
2018-03-08T16:40:19.997Z,52.50
2018-03-08T16:42:49.429Z,62.78
2018-03-08T16:45:18.490Z,56.77
2018-03-08T16:47:47.645Z,54.20
2018-03-08T16:50:17.011Z,53.72
2018-03-08T16:52:46.201Z,65.80
2018-03-08T16:55:15.302Z,58.70
2018-03-08T16:57:44.456Z,60.13
2018-03-08T17:00:13.889Z,59.87
2018-03-08T17:02:43.258Z,64.83
2018-03-08T17:05:12.580Z,72.20
2018-03-08T17:07:42.143Z,65.67
2018-03-08T17:10:11.155Z,65.73
2018-03-08T17:12:40.193Z,76.70
2018-03-08T17:15:09.493Z,92.50
2018-03-08T17:17:39.305Z,91.37
2018-03-08T17:20:08.640Z,79.03
2018-03-08T17:22:37.577Z,114.87
2018-03-08T17:25:06.825Z,47.03
2018-03-08T17:27:36.330Z,33.17
2018-03-08T17:30:05.405Z,62.33
2018-03-08T17:32:34.487Z,69.17
2018-03-08T17:35:03.491Z,67.30
2018-03-08T17:40:36.933Z,82.17
2018-03-08T17:43:06.507Z,64.23
2018-03-08T17:45:36.047Z,63.90
2018-03-08T17:48:05.418Z,59.90
2018-03-08T17:50:34.635Z,43.57
2018-03-08T17:53:03.897Z,69.13
2018-03-08T17:58:27.251Z,24.80
2018-03-08T18:00:56.237Z,22.73
2018-03-08T18:03:25.206Z,26.10
2018-03-08T18:05:54.813Z,44.83
2018-03-08T18:08:23.989Z,45.88
2018-03-08T18:10:53.204Z,40.97
2018-03-08T18:13:22.329Z,50.87
2018-03-08T18:15:51.775Z,44.55
2018-03-08T18:18:20.705Z,54.20
2018-03-08T18:20:50.004Z,53.85
2018-03-08T18:23:19.482Z,48.65
2018-03-08T18:25:48.484Z,41.35
2018-03-08T18:28:17.729Z,52.85
2018-03-08T18:30:46.953Z,56.78
2018-03-08T18:33:16.669Z,64.32
2018-03-08T18:35:46.053Z,53.43
2018-03-08T18:38:15.445Z,61.95
2018-03-08T18:40:44.543Z,48.95
2018-03-08T18:43:13.805Z,54.92
2018-03-08T18:45:43.041Z,62.25
2018-03-08T18:48:12.355Z,53.60
2018-03-08T18:50:41.643Z,49.45
2018-03-08T18:53:10.735Z,45.00
2018-03-08T18:55:39.997Z,56.60
2018-03-08T18:58:29.758Z,45.47
2018-03-08T19:00:58.885Z,57.72
2018-03-08T19:03:28.081Z,49.85
2018-03-08T19:05:57.568Z,59.63
2018-03-08T19:08:26.727Z,57.13
2018-03-08T19:10:56.197Z,56.53
2018-03-08T19:13:25.204Z,50.12
2018-03-08T19:15:54.448Z,48.95
2018-03-08T19:18:23.813Z,55.20
2018-03-08T19:20:53.310Z,58.10
2018-03-08T19:23:22.567Z,59.08
2018-03-08T19:25:51.809Z,58.50
2018-03-08T19:28:21.786Z,55.20
2018-03-08T19:30:51.026Z,50.60
2018-03-08T19:33:20.136Z,53.30
2018-03-08T19:35:49.374Z,56.85
2018-03-08T19:38:18.427Z,58.63
2018-03-08T19:40:47.821Z,57.22
2018-03-08T19:43:16.937Z,53.78
2018-03-08T19:45:46.085Z,60.65
2018-03-08T19:48:15.227Z,70.82
2018-03-08T19:50:44.398Z,66.28
2018-03-08T19:53:13.422Z,83.53
2018-03-08T19:55:42.809Z,81.93
2018-03-08T19:58:12.114Z,64.28
2018-03-08T20:00:41.082Z,53.87
2018-03-08T20:03:10.255Z,56.37
2018-03-08T20:05:39.569Z,57.97
2018-03-08T20:08:08.777Z,57.10
2018-03-08T20:10:37.954Z,60.75
2018-03-08T20:13:07.001Z,58.15
2018-03-08T20:15:36.309Z,50.03
2018-03-08T20:18:05.582Z,56.85
2018-03-08T20:20:34.697Z,48.40
2018-03-08T20:23:04.031Z,48.40
2018-03-08T20:25:33.329Z,48.45
2018-03-08T20:28:02.589Z,50.03
2018-03-08T20:30:32.197Z,47.90
2018-03-08T20:33:01.293Z,50.45
2018-03-08T20:35:30.637Z,47.60
2018-03-08T20:38:00.104Z,45.40
2018-03-08T20:40:29.615Z,48.80
2018-03-08T20:42:58.853Z,52.25
2018-03-08T20:45:28.305Z,55.05
2018-03-08T20:47:57.710Z,54.67
2018-03-08T20:50:27.948Z,52.75
2018-03-08T20:52:57.143Z,55.92
2018-03-08T20:55:26.279Z,51.90
2018-03-08T20:57:55.381Z,47.25
2018-03-08T21:00:24.524Z,45.35
2018-03-08T21:02:53.759Z,46.47
2018-03-08T21:05:22.861Z,47.08
2018-03-08T21:07:52.018Z,46.55
2018-03-08T21:10:21.046Z,46.33
2018-03-08T21:12:50.298Z,68.22
2018-03-08T21:15:19.775Z,51.72
2018-03-08T21:17:48.969Z,51.55
2018-03-08T21:20:18.243Z,54.78
2018-03-08T21:22:47.352Z,48.47
2018-03-08T21:25:16.681Z,44.00
2018-03-08T21:27:46.370Z,42.65
2018-03-08T21:30:15.613Z,46.08
2018-03-08T21:32:44.905Z,49.95
2018-03-08T21:35:14.159Z,49.53
2018-03-08T21:37:43.412Z,50.92
2018-03-08T21:40:12.623Z,51.30
2018-03-08T21:42:41.723Z,58.83
2018-03-08T21:45:10.919Z,49.67
2018-03-08T21:47:40.311Z,56.00
2018-03-08T21:50:09.761Z,56.97
2018-03-08T21:52:39.117Z,61.10
2018-03-08T21:55:08.621Z,56.30
2018-03-08T21:57:37.724Z,64.05
2018-03-08T22:00:07.031Z,58.13
2018-03-08T22:02:36.591Z,55.20
2018-03-08T22:05:05.835Z,64.28
2018-03-08T22:07:35.166Z,60.72
2018-03-08T22:10:04.325Z,64.22
2018-03-08T22:12:33.538Z,59.03
2018-03-08T22:15:02.825Z,60.97
2018-03-08T22:17:32.129Z,60.83
2018-03-08T22:20:01.373Z,60.25
2018-03-08T22:22:30.634Z,72.90
2018-03-08T22:24:59.823Z,60.63
2018-03-08T22:27:28.892Z,59.40
2018-03-08T22:29:58.097Z,59.90
2018-03-08T22:32:27.462Z,60.42
2018-03-08T22:34:56.635Z,57.20
2018-03-08T22:37:25.954Z,58.28
2018-03-08T22:39:55.117Z,72.12
2018-03-08T22:42:24.329Z,66.55
2018-03-08T22:44:53.613Z,67.68
2018-03-08T22:47:23.109Z,74.22
2018-03-08T22:49:52.375Z,63.53
2018-03-08T22:52:21.829Z,67.20
2018-03-08T22:54:51.402Z,69.65
2018-03-08T22:57:22.480Z,61.78
2018-03-08T22:59:52.039Z,63.83
2018-03-08T23:02:36.058Z,56.58
2018-03-08T23:05:05.586Z,59.38
2018-03-08T23:07:34.790Z,58.03
2018-03-08T23:10:03.990Z,48.45
2018-03-08T23:12:33.443Z,57.13
2018-03-08T23:15:02.865Z,52.83
2018-03-08T23:17:32.136Z,52.70
2018-03-08T23:20:01.287Z,48.67
2018-03-08T23:22:30.749Z,49.70
2018-03-08T23:25:00.102Z,51.00
2018-03-08T23:27:29.653Z,45.55
2018-03-08T23:29:58.930Z,50.80
2018-03-08T23:32:27.957Z,53.30
2018-03-08T23:34:57.199Z,48.15
2018-03-08T23:37:26.273Z,51.40
2018-03-08T23:39:55.745Z,48.38
2018-03-08T23:42:25.157Z,48.87
2018-03-08T23:44:54.398Z,47.78
2018-03-08T23:47:23.243Z,46.25
2018-03-08T23:49:52.679Z,48.08
2018-03-08T23:52:22.085Z,46.58
2018-03-08T23:54:51.485Z,36.65
2018-03-08T23:57:20.850Z,32.60
2018-03-08T23:59:50.098Z,30.00
